sensor_id;sensor_type;location;lat;lon;timestamp;temperature;humidity
17879;DHT22;9065;51.050;13.758;2022-10-31T00:00:22;12.50;99.90
17879;DHT22;9065;51.050;13.758;2022-10-31T00:02:49;12.50;99.90
17879;DHT22;9065;51.050;13.758;2022-10-31T00:05:17;12.50;99.90
17879;DHT22;9065;51.050;13.758;2022-10-31T00:07:44;12.50;99.90
17879;DHT22;9065;51.050;13.758;2022-10-31T00:10:12;12.50;99.90
17879;DHT22;9065;51.050;13.758;2022-10-31T00:12:40;12.50;99.90
17879;DHT22;9065;51.050;13.758;2022-10-31T00:15:07;12.40;99.90
17879;DHT22;9065;51.050;13.758;2022-10-31T00:17:35;12.40;99.90
17879;DHT22;9065;51.050;13.758;2022-10-31T00:20:03;12.40;99.90
17879;DHT22;9065;51.050;13.758;2022-10-31T00:22:29;12.40;99.90
17879;DHT22;9065;51.050;13.758;2022-10-31T00:24:56;12.40;99.90
17879;DHT22;9065;51.050;13.758;2022-10-31T00:27:23;12.40;99.90
17879;DHT22;9065;51.050;13.758;2022-10-31T00:29:51;12.30;99.90
17879;DHT22;9065;51.050;13.758;2022-10-31T00:32:19;12.30;99.90
17879;DHT22;9065;51.050;13.758;2022-10-31T00:34:47;12.20;99.90
17879;DHT22;9065;51.050;13.758;2022-10-31T00:37:14;12.20;99.90
17879;DHT22;9065;51.050;13.758;2022-10-31T00:39:40;12.20;99.90
17879;DHT22;9065;51.050;13.758;2022-10-31T00:42:07;12.20;99.90
17879;DHT22;9065;51.050;13.758;2022-10-31T00:44:34;12.20;99.90
17879;DHT22;9065;51.050;13.758;2022-10-31T00:47:03;12.20;99.90
17879;DHT22;9065;51.050;13.758;2022-10-31T00:49:31;12.20;99.90
17879;DHT22;9065;51.050;13.758;2022-10-31T00:51:58;12.20;99.90
17879;DHT22;9065;51.050;13.758;2022-10-31T00:54:29;12.10;99.90
17879;DHT22;9065;51.050;13.758;2022-10-31T00:56:57;12.10;99.90
17879;DHT22;9065;51.050;13.758;2022-10-31T00:59:24;12.10;99.90
17879;DHT22;9065;51.050;13.758;2022-10-31T01:01:52;12.10;99.90
17879;DHT22;9065;51.050;13.758;2022-10-31T01:04:20;12.10;99.90
17879;DHT22;9065;51.050;13.758;2022-10-31T01:06:47;12.10;99.90
17879;DHT22;9065;51.050;13.758;2022-10-31T01:09:14;12.00;99.90
17879;DHT22;9065;51.050;13.758;2022-10-31T01:11:40;12.10;99.90
17879;DHT22;9065;51.050;13.758;2022-10-31T01:14:08;12.00;99.90
17879;DHT22;9065;51.050;13.758;2022-10-31T01:16:36;11.90;99.90
17879;DHT22;9065;51.050;13.758;2022-10-31T01:19:03;12.00;99.90
17879;DHT22;9065;51.050;13.758;2022-10-31T01:21:31;12.00;99.90
17879;DHT22;9065;51.050;13.758;2022-10-31T01:23:57;12.00;99.90
17879;DHT22;9065;51.050;13.758;2022-10-31T01:26:26;12.00;99.90
17879;DHT22;9065;51.050;13.758;2022-10-31T01:29:01;12.00;99.90
17879;DHT22;9065;51.050;13.758;2022-10-31T01:31:29;12.00;99.90
17879;DHT22;9065;51.050;13.758;2022-10-31T01:33:58;11.90;99.90
17879;DHT22;9065;51.050;13.758;2022-10-31T01:36:27;11.90;99.90
17879;DHT22;9065;51.050;13.758;2022-10-31T01:38:57;11.90;99.90
17879;DHT22;9065;51.050;13.758;2022-10-31T01:41:27;11.90;99.90
17879;DHT22;9065;51.050;13.758;2022-10-31T01:43:56;11.90;99.90
17879;DHT22;9065;51.050;13.758;2022-10-31T01:46:25;11.90;99.90
17879;DHT22;9065;51.050;13.758;2022-10-31T01:48:53;11.80;99.90
17879;DHT22;9065;51.050;13.758;2022-10-31T01:51:24;11.80;99.90
17879;DHT22;9065;51.050;13.758;2022-10-31T01:53:55;11.80;99.90
17879;DHT22;9065;51.050;13.758;2022-10-31T01:56:24;11.80;99.90
17879;DHT22;9065;51.050;13.758;2022-10-31T01:58:51;11.80;99.90
17879;DHT22;9065;51.050;13.758;2022-10-31T02:01:20;11.80;99.90
17879;DHT22;9065;51.050;13.758;2022-10-31T02:03:47;11.80;99.90
17879;DHT22;9065;51.050;13.758;2022-10-31T02:06:25;11.80;99.90
17879;DHT22;9065;51.050;13.758;2022-10-31T02:08:55;11.70;99.90
17879;DHT22;9065;51.050;13.758;2022-10-31T02:11:23;11.70;99.90
17879;DHT22;9065;51.050;13.758;2022-10-31T02:13:50;11.70;99.90
17879;DHT22;9065;51.050;13.758;2022-10-31T02:16:17;11.70;99.90
17879;DHT22;9065;51.050;13.758;2022-10-31T02:18:44;11.70;99.90
17879;DHT22;9065;51.050;13.758;2022-10-31T02:21:17;11.60;99.90
17879;DHT22;9065;51.050;13.758;2022-10-31T02:24:12;11.60;99.90
17879;DHT22;9065;51.050;13.758;2022-10-31T02:26:51;11.60;99.90
17879;DHT22;9065;51.050;13.758;2022-10-31T02:29:51;11.60;99.90
17879;DHT22;9065;51.050;13.758;2022-10-31T02:32:25;11.60;99.90
17879;DHT22;9065;51.050;13.758;2022-10-31T02:34:58;11.60;99.90
17879;DHT22;9065;51.050;13.758;2022-10-31T02:37:34;11.60;99.90
17879;DHT22;9065;51.050;13.758;2022-10-31T02:40:05;11.60;99.90
17879;DHT22;9065;51.050;13.758;2022-10-31T02:42:39;11.60;99.90
17879;DHT22;9065;51.050;13.758;2022-10-31T02:45:14;11.60;99.90
17879;DHT22;9065;51.050;13.758;2022-10-31T02:47:46;11.60;99.90
17879;DHT22;9065;51.050;13.758;2022-10-31T02:50:19;11.60;99.90
17879;DHT22;9065;51.050;13.758;2022-10-31T02:52:51;11.50;99.90
17879;DHT22;9065;51.050;13.758;2022-10-31T02:55:44;11.50;99.90
17879;DHT22;9065;51.050;13.758;2022-10-31T02:58:15;11.50;99.90
17879;DHT22;9065;51.050;13.758;2022-10-31T03:00:49;11.50;99.90
17879;DHT22;9065;51.050;13.758;2022-10-31T03:03:27;11.50;99.90
17879;DHT22;9065;51.050;13.758;2022-10-31T03:05:58;11.50;99.90
17879;DHT22;9065;51.050;13.758;2022-10-31T03:08:31;11.40;99.90
17879;DHT22;9065;51.050;13.758;2022-10-31T03:11:03;11.40;99.90
17879;DHT22;9065;51.050;13.758;2022-10-31T03:13:35;11.30;99.90
17879;DHT22;9065;51.050;13.758;2022-10-31T03:16:10;11.30;99.90
17879;DHT22;9065;51.050;13.758;2022-10-31T03:18:46;11.30;99.90
17879;DHT22;9065;51.050;13.758;2022-10-31T03:21:19;11.30;99.90
17879;DHT22;9065;51.050;13.758;2022-10-31T03:23:47;11.30;99.90
17879;DHT22;9065;51.050;13.758;2022-10-31T03:26:17;11.20;99.90
17879;DHT22;9065;51.050;13.758;2022-10-31T03:28:47;11.20;99.90
17879;DHT22;9065;51.050;13.758;2022-10-31T03:31:18;11.20;99.90
17879;DHT22;9065;51.050;13.758;2022-10-31T03:33:51;11.20;99.90
17879;DHT22;9065;51.050;13.758;2022-10-31T03:36:19;11.20;99.90
17879;DHT22;9065;51.050;13.758;2022-10-31T03:38:46;11.10;99.90
17879;DHT22;9065;51.050;13.758;2022-10-31T03:41:21;11.10;99.90
17879;DHT22;9065;51.050;13.758;2022-10-31T03:43:54;11.10;99.90
17879;DHT22;9065;51.050;13.758;2022-10-31T03:46:21;11.10;99.90
17879;DHT22;9065;51.050;13.758;2022-10-31T03:48:50;11.10;99.90
17879;DHT22;9065;51.050;13.758;2022-10-31T03:51:22;11.10;99.90
17879;DHT22;9065;51.050;13.758;2022-10-31T03:53:54;11.10;99.90
17879;DHT22;9065;51.050;13.758;2022-10-31T03:56:29;11.00;99.90
17879;DHT22;9065;51.050;13.758;2022-10-31T03:58:59;11.10;99.90
17879;DHT22;9065;51.050;13.758;2022-10-31T04:01:30;11.00;99.90
17879;DHT22;9065;51.050;13.758;2022-10-31T04:03:59;11.00;99.90
17879;DHT22;9065;51.050;13.758;2022-10-31T04:06:27;10.90;99.90
17879;DHT22;9065;51.050;13.758;2022-10-31T04:08:57;10.90;99.90
17879;DHT22;9065;51.050;13.758;2022-10-31T04:11:29;10.80;99.90
17879;DHT22;9065;51.050;13.758;2022-10-31T04:13:58;10.90;99.90
17879;DHT22;9065;51.050;13.758;2022-10-31T04:16:26;10.90;99.90
17879;DHT22;9065;51.050;13.758;2022-10-31T04:18:53;10.90;99.90
17879;DHT22;9065;51.050;13.758;2022-10-31T04:21:26;10.90;99.90
17879;DHT22;9065;51.050;13.758;2022-10-31T04:23:56;10.80;99.90
17879;DHT22;9065;51.050;13.758;2022-10-31T04:26:24;10.90;99.90
17879;DHT22;9065;51.050;13.758;2022-10-31T04:28:50;10.80;99.90
17879;DHT22;9065;51.050;13.758;2022-10-31T04:31:18;10.80;99.90
17879;DHT22;9065;51.050;13.758;2022-10-31T04:33:45;10.80;99.90
17879;DHT22;9065;51.050;13.758;2022-10-31T04:36:12;10.80;99.90
17879;DHT22;9065;51.050;13.758;2022-10-31T04:38:40;10.80;99.90
17879;DHT22;9065;51.050;13.758;2022-10-31T04:41:06;10.70;99.90
17879;DHT22;9065;51.050;13.758;2022-10-31T04:43:34;10.80;99.90
17879;DHT22;9065;51.050;13.758;2022-10-31T04:46:01;10.70;99.90
17879;DHT22;9065;51.050;13.758;2022-10-31T04:48:28;10.60;99.90
17879;DHT22;9065;51.050;13.758;2022-10-31T04:50:58;10.60;99.90
17879;DHT22;9065;51.050;13.758;2022-10-31T04:53:25;10.60;99.90
17879;DHT22;9065;51.050;13.758;2022-10-31T04:55:53;10.50;99.90
17879;DHT22;9065;51.050;13.758;2022-10-31T04:58:24;10.50;99.90
17879;DHT22;9065;51.050;13.758;2022-10-31T05:00:52;10.50;99.90
17879;DHT22;9065;51.050;13.758;2022-10-31T05:03:19;10.50;99.90
17879;DHT22;9065;51.050;13.758;2022-10-31T05:05:46;10.50;99.90
17879;DHT22;9065;51.050;13.758;2022-10-31T05:08:13;10.50;99.90
17879;DHT22;9065;51.050;13.758;2022-10-31T05:10:39;10.50;99.90
17879;DHT22;9065;51.050;13.758;2022-10-31T05:13:08;10.50;99.90
17879;DHT22;9065;51.050;13.758;2022-10-31T05:15:36;10.40;99.90
17879;DHT22;9065;51.050;13.758;2022-10-31T05:18:03;10.40;99.90
17879;DHT22;9065;51.050;13.758;2022-10-31T05:20:30;10.40;99.90
17879;DHT22;9065;51.050;13.758;2022-10-31T05:22:58;10.40;99.90
17879;DHT22;9065;51.050;13.758;2022-10-31T05:25:26;10.40;99.90
17879;DHT22;9065;51.050;13.758;2022-10-31T05:27:54;10.40;99.90
17879;DHT22;9065;51.050;13.758;2022-10-31T05:30:25;10.40;99.90
17879;DHT22;9065;51.050;13.758;2022-10-31T05:32:52;10.30;99.90
17879;DHT22;9065;51.050;13.758;2022-10-31T05:35:21;10.30;99.90
17879;DHT22;9065;51.050;13.758;2022-10-31T05:37:50;10.30;99.90
17879;DHT22;9065;51.050;13.758;2022-10-31T05:40:18;10.20;99.90
17879;DHT22;9065;51.050;13.758;2022-10-31T05:42:46;10.20;99.90
17879;DHT22;9065;51.050;13.758;2022-10-31T05:45:14;10.20;99.90
17879;DHT22;9065;51.050;13.758;2022-10-31T05:47:50;10.20;99.90
17879;DHT22;9065;51.050;13.758;2022-10-31T05:50:17;10.20;99.90
17879;DHT22;9065;51.050;13.758;2022-10-31T05:52:44;10.20;99.90
17879;DHT22;9065;51.050;13.758;2022-10-31T05:55:11;10.20;99.90
17879;DHT22;9065;51.050;13.758;2022-10-31T05:57:39;10.20;99.90
17879;DHT22;9065;51.050;13.758;2022-10-31T06:00:07;10.20;99.90
17879;DHT22;9065;51.050;13.758;2022-10-31T06:02:37;10.20;99.90
17879;DHT22;9065;51.050;13.758;2022-10-31T06:05:07;10.20;99.90
17879;DHT22;9065;51.050;13.758;2022-10-31T06:07:34;10.20;99.90
17879;DHT22;9065;51.050;13.758;2022-10-31T06:10:02;10.20;99.90
17879;DHT22;9065;51.050;13.758;2022-10-31T06:12:29;10.20;99.90
17879;DHT22;9065;51.050;13.758;2022-10-31T06:14:56;10.10;99.90
17879;DHT22;9065;51.050;13.758;2022-10-31T06:17:24;10.10;99.90
17879;DHT22;9065;51.050;13.758;2022-10-31T06:19:50;10.10;99.90
17879;DHT22;9065;51.050;13.758;2022-10-31T06:22:18;10.10;99.90
17879;DHT22;9065;51.050;13.758;2022-10-31T06:24:45;10.10;99.90
17879;DHT22;9065;51.050;13.758;2022-10-31T06:27:12;10.10;99.90
17879;DHT22;9065;51.050;13.758;2022-10-31T06:29:38;10.10;99.90
17879;DHT22;9065;51.050;13.758;2022-10-31T06:32:05;10.10;99.90
17879;DHT22;9065;51.050;13.758;2022-10-31T06:34:33;10.10;99.90
17879;DHT22;9065;51.050;13.758;2022-10-31T06:36:59;10.10;99.90
17879;DHT22;9065;51.050;13.758;2022-10-31T06:39:27;10.10;99.90
17879;DHT22;9065;51.050;13.758;2022-10-31T06:41:55;10.10;99.90
17879;DHT22;9065;51.050;13.758;2022-10-31T06:44:22;10.10;99.90
17879;DHT22;9065;51.050;13.758;2022-10-31T06:46:50;10.20;99.90
17879;DHT22;9065;51.050;13.758;2022-10-31T06:49:18;10.20;99.90
17879;DHT22;9065;51.050;13.758;2022-10-31T06:51:47;10.10;99.90
17879;DHT22;9065;51.050;13.758;2022-10-31T06:54:16;10.20;99.90
17879;DHT22;9065;51.050;13.758;2022-10-31T06:56:45;10.20;99.90
17879;DHT22;9065;51.050;13.758;2022-10-31T06:59:19;10.20;99.90
17879;DHT22;9065;51.050;13.758;2022-10-31T07:01:47;10.20;99.90
17879;DHT22;9065;51.050;13.758;2022-10-31T07:04:16;10.20;99.90
17879;DHT22;9065;51.050;13.758;2022-10-31T07:06:42;10.30;99.90
17879;DHT22;9065;51.050;13.758;2022-10-31T07:09:09;10.30;99.90
17879;DHT22;9065;51.050;13.758;2022-10-31T07:11:36;10.40;99.90
17879;DHT22;9065;51.050;13.758;2022-10-31T07:14:05;10.40;99.90
17879;DHT22;9065;51.050;13.758;2022-10-31T07:16:31;10.40;99.90
17879;DHT22;9065;51.050;13.758;2022-10-31T07:19:04;10.40;99.90
17879;DHT22;9065;51.050;13.758;2022-10-31T07:21:33;10.50;99.90
17879;DHT22;9065;51.050;13.758;2022-10-31T07:23:59;10.60;99.90
17879;DHT22;9065;51.050;13.758;2022-10-31T07:26:27;10.70;99.90
17879;DHT22;9065;51.050;13.758;2022-10-31T07:28:54;10.70;99.90
17879;DHT22;9065;51.050;13.758;2022-10-31T07:31:22;10.80;99.90
17879;DHT22;9065;51.050;13.758;2022-10-31T07:33:50;10.80;99.90
17879;DHT22;9065;51.050;13.758;2022-10-31T07:36:17;10.90;99.90
17879;DHT22;9065;51.050;13.758;2022-10-31T07:38:43;11.10;99.90
17879;DHT22;9065;51.050;13.758;2022-10-31T07:41:11;11.10;99.90
17879;DHT22;9065;51.050;13.758;2022-10-31T07:43:38;11.20;99.90
17879;DHT22;9065;51.050;13.758;2022-10-31T07:46:04;11.20;99.90
17879;DHT22;9065;51.050;13.758;2022-10-31T07:48:32;11.30;99.90
17879;DHT22;9065;51.050;13.758;2022-10-31T07:51:00;11.40;99.90
17879;DHT22;9065;51.050;13.758;2022-10-31T07:53:27;11.60;99.90
17879;DHT22;9065;51.050;13.758;2022-10-31T07:55:57;11.70;99.90
17879;DHT22;9065;51.050;13.758;2022-10-31T07:58:24;11.80;99.90
17879;DHT22;9065;51.050;13.758;2022-10-31T08:00:51;11.80;99.90
17879;DHT22;9065;51.050;13.758;2022-10-31T08:03:19;12.00;99.90
17879;DHT22;9065;51.050;13.758;2022-10-31T08:05:47;12.00;99.90
17879;DHT22;9065;51.050;13.758;2022-10-31T08:08:14;12.10;99.90
17879;DHT22;9065;51.050;13.758;2022-10-31T08:10:41;12.20;99.90
17879;DHT22;9065;51.050;13.758;2022-10-31T08:13:10;12.30;99.90
17879;DHT22;9065;51.050;13.758;2022-10-31T08:15:37;12.50;99.90
17879;DHT22;9065;51.050;13.758;2022-10-31T08:18:11;12.60;99.90
17879;DHT22;9065;51.050;13.758;2022-10-31T08:20:38;12.70;99.90
17879;DHT22;9065;51.050;13.758;2022-10-31T08:23:09;12.90;99.90
17879;DHT22;9065;51.050;13.758;2022-10-31T08:25:37;12.90;99.90
17879;DHT22;9065;51.050;13.758;2022-10-31T08:28:06;13.00;99.90
17879;DHT22;9065;51.050;13.758;2022-10-31T08:30:35;13.10;99.90
17879;DHT22;9065;51.050;13.758;2022-10-31T08:33:05;13.20;99.90
17879;DHT22;9065;51.050;13.758;2022-10-31T08:35:36;13.30;99.90
17879;DHT22;9065;51.050;13.758;2022-10-31T08:38:08;13.40;99.90
17879;DHT22;9065;51.050;13.758;2022-10-31T08:40:35;13.50;99.90
17879;DHT22;9065;51.050;13.758;2022-10-31T08:43:04;13.60;99.90
17879;DHT22;9065;51.050;13.758;2022-10-31T08:45:33;13.70;99.90
17879;DHT22;9065;51.050;13.758;2022-10-31T08:48:02;13.90;99.90
17879;DHT22;9065;51.050;13.758;2022-10-31T08:50:30;13.90;99.90
17879;DHT22;9065;51.050;13.758;2022-10-31T08:53:00;14.10;99.90
17879;DHT22;9065;51.050;13.758;2022-10-31T08:55:29;14.30;99.90
17879;DHT22;9065;51.050;13.758;2022-10-31T08:57:56;14.30;99.90
17879;DHT22;9065;51.050;13.758;2022-10-31T09:00:23;14.50;99.90
17879;DHT22;9065;51.050;13.758;2022-10-31T09:02:55;14.60;99.90
17879;DHT22;9065;51.050;13.758;2022-10-31T09:05:23;14.80;99.90
17879;DHT22;9065;51.050;13.758;2022-10-31T09:07:49;14.90;99.90
17879;DHT22;9065;51.050;13.758;2022-10-31T09:10:16;14.90;99.90
17879;DHT22;9065;51.050;13.758;2022-10-31T09:12:44;15.00;99.90
17879;DHT22;9065;51.050;13.758;2022-10-31T09:15:17;15.10;99.90
17879;DHT22;9065;51.050;13.758;2022-10-31T09:17:46;15.10;99.90
17879;DHT22;9065;51.050;13.758;2022-10-31T09:20:14;15.20;99.90
17879;DHT22;9065;51.050;13.758;2022-10-31T09:22:42;15.20;99.90
17879;DHT22;9065;51.050;13.758;2022-10-31T09:25:09;15.30;99.90
17879;DHT22;9065;51.050;13.758;2022-10-31T09:27:36;15.40;99.90
17879;DHT22;9065;51.050;13.758;2022-10-31T09:30:06;15.50;99.90
17879;DHT22;9065;51.050;13.758;2022-10-31T09:32:33;15.60;99.90
17879;DHT22;9065;51.050;13.758;2022-10-31T09:34:59;15.80;99.90
17879;DHT22;9065;51.050;13.758;2022-10-31T09:37:26;16.00;99.90
17879;DHT22;9065;51.050;13.758;2022-10-31T09:39:53;16.20;99.90
17879;DHT22;9065;51.050;13.758;2022-10-31T09:42:33;16.30;99.90
17879;DHT22;9065;51.050;13.758;2022-10-31T09:45:10;16.50;99.90
17879;DHT22;9065;51.050;13.758;2022-10-31T09:47:50;16.60;99.90
17879;DHT22;9065;51.050;13.758;2022-10-31T09:50:21;16.80;99.90
17879;DHT22;9065;51.050;13.758;2022-10-31T09:52:54;17.20;99.90
17879;DHT22;9065;51.050;13.758;2022-10-31T09:55:27;17.10;99.90
17879;DHT22;9065;51.050;13.758;2022-10-31T09:58:14;17.40;99.90
17879;DHT22;9065;51.050;13.758;2022-10-31T10:00:43;17.50;99.90
17879;DHT22;9065;51.050;13.758;2022-10-31T10:03:31;17.70;99.90
17879;DHT22;9065;51.050;13.758;2022-10-31T10:06:06;17.90;99.90
17879;DHT22;9065;51.050;13.758;2022-10-31T10:08:35;18.60;99.90
17879;DHT22;9065;51.050;13.758;2022-10-31T10:11:20;19.70;99.90
17879;DHT22;9065;51.050;13.758;2022-10-31T10:14:03;20.80;99.90
17879;DHT22;9065;51.050;13.758;2022-10-31T10:16:42;21.70;99.90
17879;DHT22;9065;51.050;13.758;2022-10-31T10:19:34;22.50;99.90
17879;DHT22;9065;51.050;13.758;2022-10-31T10:22:13;24.50;99.90
17879;DHT22;9065;51.050;13.758;2022-10-31T10:25:02;26.50;99.90
17879;DHT22;9065;51.050;13.758;2022-10-31T10:27:46;28.00;99.90
17879;DHT22;9065;51.050;13.758;2022-10-31T10:30:17;28.90;99.90
17879;DHT22;9065;51.050;13.758;2022-10-31T10:32:48;29.50;99.90
17879;DHT22;9065;51.050;13.758;2022-10-31T10:35:26;29.90;99.90
17879;DHT22;9065;51.050;13.758;2022-10-31T10:37:58;30.50;99.90
17879;DHT22;9065;51.050;13.758;2022-10-31T10:40:27;30.50;99.90
17879;DHT22;9065;51.050;13.758;2022-10-31T10:43:01;31.00;99.90
17879;DHT22;9065;51.050;13.758;2022-10-31T10:45:52;31.80;99.90
17879;DHT22;9065;51.050;13.758;2022-10-31T10:48:44;32.40;99.90
17879;DHT22;9065;51.050;13.758;2022-10-31T10:51:20;33.40;99.90
17879;DHT22;9065;51.050;13.758;2022-10-31T10:54:17;34.30;99.90
17879;DHT22;9065;51.050;13.758;2022-10-31T10:56:58;35.40;97.40
17879;DHT22;9065;51.050;13.758;2022-10-31T10:59:27;36.60;96.80
17879;DHT22;9065;51.050;13.758;2022-10-31T11:01:56;36.10;93.80
17879;DHT22;9065;51.050;13.758;2022-10-31T11:04:34;37.30;93.40
17879;DHT22;9065;51.050;13.758;2022-10-31T11:07:03;35.00;92.10
17879;DHT22;9065;51.050;13.758;2022-10-31T11:09:31;32.90;94.90
17879;DHT22;9065;51.050;13.758;2022-10-31T11:12:07;33.30;94.70
17879;DHT22;9065;51.050;13.758;2022-10-31T11:14:42;33.40;95.70
17879;DHT22;9065;51.050;13.758;2022-10-31T11:17:16;32.70;97.30
17879;DHT22;9065;51.050;13.758;2022-10-31T11:19:45;31.50;98.20
17879;DHT22;9065;51.050;13.758;2022-10-31T11:22:16;29.60;99.10
17879;DHT22;9065;51.050;13.758;2022-10-31T11:24:44;28.10;99.90
17879;DHT22;9065;51.050;13.758;2022-10-31T11:27:15;27.10;99.90
17879;DHT22;9065;51.050;13.758;2022-10-31T11:29:42;26.20;99.90
17879;DHT22;9065;51.050;13.758;2022-10-31T11:32:18;25.20;99.90
17879;DHT22;9065;51.050;13.758;2022-10-31T11:34:49;24.50;99.90
17879;DHT22;9065;51.050;13.758;2022-10-31T11:37:20;24.10;99.90
17879;DHT22;9065;51.050;13.758;2022-10-31T11:39:50;23.40;99.90
17879;DHT22;9065;51.050;13.758;2022-10-31T11:42:21;23.10;99.90
17879;DHT22;9065;51.050;13.758;2022-10-31T11:44:50;22.80;99.90
17879;DHT22;9065;51.050;13.758;2022-10-31T11:47:25;22.50;99.90
17879;DHT22;9065;51.050;13.758;2022-10-31T11:49:57;22.50;99.90
17879;DHT22;9065;51.050;13.758;2022-10-31T11:52:25;22.40;99.90
17879;DHT22;9065;51.050;13.758;2022-10-31T11:54:55;22.20;99.90
17879;DHT22;9065;51.050;13.758;2022-10-31T11:57:24;22.00;99.90
17879;DHT22;9065;51.050;13.758;2022-10-31T11:59:52;21.80;99.90
17879;DHT22;9065;51.050;13.758;2022-10-31T12:02:20;21.60;99.90
17879;DHT22;9065;51.050;13.758;2022-10-31T12:04:55;21.30;99.90
17879;DHT22;9065;51.050;13.758;2022-10-31T12:07:24;21.20;99.90
17879;DHT22;9065;51.050;13.758;2022-10-31T12:09:50;21.00;99.90
17879;DHT22;9065;51.050;13.758;2022-10-31T12:12:45;20.80;99.90
17879;DHT22;9065;51.050;13.758;2022-10-31T12:15:27;20.80;99.90
17879;DHT22;9065;51.050;13.758;2022-10-31T12:18:05;20.70;99.90
17879;DHT22;9065;51.050;13.758;2022-10-31T12:20:47;20.70;99.90
17879;DHT22;9065;51.050;13.758;2022-10-31T12:23:25;20.60;99.90
17879;DHT22;9065;51.050;13.758;2022-10-31T12:26:00;20.60;99.90
17879;DHT22;9065;51.050;13.758;2022-10-31T12:28:43;20.50;99.90
17879;DHT22;9065;51.050;13.758;2022-10-31T12:31:24;20.40;99.90
17879;DHT22;9065;51.050;13.758;2022-10-31T12:34:02;20.30;99.90
17879;DHT22;9065;51.050;13.758;2022-10-31T12:36:46;20.40;99.90
17879;DHT22;9065;51.050;13.758;2022-10-31T12:39:24;20.30;99.90
17879;DHT22;9065;51.050;13.758;2022-10-31T12:41:59;20.20;99.90
17879;DHT22;9065;51.050;13.758;2022-10-31T12:44:55;20.20;99.90
17879;DHT22;9065;51.050;13.758;2022-10-31T12:47:53;20.20;99.90
17879;DHT22;9065;51.050;13.758;2022-10-31T12:50:33;20.10;99.90
17879;DHT22;9065;51.050;13.758;2022-10-31T12:53:19;20.10;99.90
17879;DHT22;9065;51.050;13.758;2022-10-31T12:55:55;20.20;99.90
17879;DHT22;9065;51.050;13.758;2022-10-31T12:58:30;20.20;99.90
17879;DHT22;9065;51.050;13.758;2022-10-31T13:01:07;20.20;99.90
17879;DHT22;9065;51.050;13.758;2022-10-31T13:03:42;20.10;99.90
17879;DHT22;9065;51.050;13.758;2022-10-31T13:06:16;20.00;99.90
17879;DHT22;9065;51.050;13.758;2022-10-31T13:08:47;20.00;99.90
17879;DHT22;9065;51.050;13.758;2022-10-31T13:11:19;19.90;99.90
17879;DHT22;9065;51.050;13.758;2022-10-31T13:13:54;20.00;99.90
17879;DHT22;9065;51.050;13.758;2022-10-31T13:16:24;20.00;99.90
17879;DHT22;9065;51.050;13.758;2022-10-31T13:18:58;20.00;99.90
17879;DHT22;9065;51.050;13.758;2022-10-31T13:21:30;20.00;99.90
17879;DHT22;9065;51.050;13.758;2022-10-31T13:24:04;19.90;99.90
17879;DHT22;9065;51.050;13.758;2022-10-31T13:26:37;19.90;99.90
17879;DHT22;9065;51.050;13.758;2022-10-31T13:29:12;19.90;99.90
17879;DHT22;9065;51.050;13.758;2022-10-31T13:31:41;19.90;99.90
17879;DHT22;9065;51.050;13.758;2022-10-31T13:34:18;19.90;99.90
17879;DHT22;9065;51.050;13.758;2022-10-31T13:36:51;19.80;99.90
17879;DHT22;9065;51.050;13.758;2022-10-31T13:39:31;19.80;99.90
17879;DHT22;9065;51.050;13.758;2022-10-31T13:42:03;19.90;99.90
17879;DHT22;9065;51.050;13.758;2022-10-31T13:44:35;19.90;99.90
17879;DHT22;9065;51.050;13.758;2022-10-31T13:47:22;19.90;99.90
17879;DHT22;9065;51.050;13.758;2022-10-31T13:49:49;19.80;99.90
17879;DHT22;9065;51.050;13.758;2022-10-31T13:52:23;19.90;99.90
17879;DHT22;9065;51.050;13.758;2022-10-31T13:54:53;19.80;99.90
17879;DHT22;9065;51.050;13.758;2022-10-31T13:57:37;19.70;99.90
17879;DHT22;9065;51.050;13.758;2022-10-31T14:00:22;19.80;99.90
17879;DHT22;9065;51.050;13.758;2022-10-31T14:02:52;19.80;99.90
17879;DHT22;9065;51.050;13.758;2022-10-31T14:05:23;19.80;99.90
17879;DHT22;9065;51.050;13.758;2022-10-31T14:07:52;19.80;99.90
17879;DHT22;9065;51.050;13.758;2022-10-31T14:10:25;19.80;99.90
17879;DHT22;9065;51.050;13.758;2022-10-31T14:13:04;19.80;99.90
17879;DHT22;9065;51.050;13.758;2022-10-31T14:15:32;19.70;99.90
17879;DHT22;9065;51.050;13.758;2022-10-31T14:18:01;19.60;99.90
17879;DHT22;9065;51.050;13.758;2022-10-31T14:20:38;19.60;99.90
17879;DHT22;9065;51.050;13.758;2022-10-31T14:23:13;19.60;99.90
17879;DHT22;9065;51.050;13.758;2022-10-31T14:26:17;19.60;99.90
17879;DHT22;9065;51.050;13.758;2022-10-31T14:28:45;19.60;99.90
17879;DHT22;9065;51.050;13.758;2022-10-31T14:31:30;19.60;99.90
17879;DHT22;9065;51.050;13.758;2022-10-31T14:33:59;19.50;99.90
17879;DHT22;9065;51.050;13.758;2022-10-31T14:36:37;19.50;99.90
17879;DHT22;9065;51.050;13.758;2022-10-31T14:39:13;19.40;99.90
17879;DHT22;9065;51.050;13.758;2022-10-31T14:41:55;19.30;99.90
17879;DHT22;9065;51.050;13.758;2022-10-31T14:44:48;19.20;99.90
17879;DHT22;9065;51.050;13.758;2022-10-31T14:47:26;19.10;99.90
17879;DHT22;9065;51.050;13.758;2022-10-31T14:50:12;19.00;99.90
17879;DHT22;9065;51.050;13.758;2022-10-31T14:52:45;18.90;99.90
17879;DHT22;9065;51.050;13.758;2022-10-31T14:55:14;18.80;99.90
17879;DHT22;9065;51.050;13.758;2022-10-31T14:57:47;18.70;99.90
17879;DHT22;9065;51.050;13.758;2022-10-31T15:00:17;18.60;99.90
17879;DHT22;9065;51.050;13.758;2022-10-31T15:02:55;18.60;99.90
17879;DHT22;9065;51.050;13.758;2022-10-31T15:05:26;18.50;99.90
17879;DHT22;9065;51.050;13.758;2022-10-31T15:07:55;18.40;99.90
17879;DHT22;9065;51.050;13.758;2022-10-31T15:10:25;18.40;99.90
17879;DHT22;9065;51.050;13.758;2022-10-31T15:12:53;18.30;99.90
17879;DHT22;9065;51.050;13.758;2022-10-31T15:15:22;18.20;99.90
17879;DHT22;9065;51.050;13.758;2022-10-31T15:17:51;18.20;99.90
17879;DHT22;9065;51.050;13.758;2022-10-31T15:20:22;18.10;99.90
17879;DHT22;9065;51.050;13.758;2022-10-31T15:22:50;17.90;99.90
17879;DHT22;9065;51.050;13.758;2022-10-31T15:25:18;17.80;99.90
17879;DHT22;9065;51.050;13.758;2022-10-31T15:27:46;17.80;99.90
17879;DHT22;9065;51.050;13.758;2022-10-31T15:30:20;17.70;99.90
17879;DHT22;9065;51.050;13.758;2022-10-31T15:32:48;17.50;99.90
17879;DHT22;9065;51.050;13.758;2022-10-31T15:35:21;17.50;99.90
17879;DHT22;9065;51.050;13.758;2022-10-31T15:37:48;17.40;99.90
17879;DHT22;9065;51.050;13.758;2022-10-31T15:40:17;17.30;99.90
17879;DHT22;9065;51.050;13.758;2022-10-31T15:42:48;17.20;99.90
17879;DHT22;9065;51.050;13.758;2022-10-31T15:45:19;17.10;99.90
17879;DHT22;9065;51.050;13.758;2022-10-31T15:47:53;17.00;99.90
17879;DHT22;9065;51.050;13.758;2022-10-31T15:50:25;17.00;99.90
17879;DHT22;9065;51.050;13.758;2022-10-31T15:52:54;16.90;99.90
17879;DHT22;9065;51.050;13.758;2022-10-31T15:55:24;16.90;99.90